createdAt,value
2024-05-09T00:01:47.895Z,52.20
2024-05-09T00:04:36.609Z,52.25
2024-05-09T00:07:25.042Z,53.00
2024-05-09T00:10:22.361Z,52.72
2024-05-09T00:13:20.452Z,51.86
2024-05-09T00:16:09.790Z,51.86
2024-05-09T00:18:58.530Z,51.55
2024-05-09T00:21:47.120Z,51.65
2024-05-09T00:24:35.694Z,51.71
2024-05-09T00:27:24.186Z,51.52
2024-05-09T00:30:24.173Z,51.15
2024-05-09T00:33:20.534Z,51.72
2024-05-09T00:36:10.067Z,50.42
2024-05-09T00:38:58.559Z,51.48
2024-05-09T00:41:47.213Z,51.87
2024-05-09T00:44:35.603Z,52.03
2024-05-09T00:47:27.463Z,53.16
2024-05-09T00:50:22.737Z,53.35
2024-05-09T00:53:20.093Z,53.32
2024-05-09T00:56:10.803Z,52.69
2024-05-09T00:58:59.510Z,52.41
2024-05-09T01:01:48.944Z,51.33
2024-05-09T01:04:40.456Z,53.17
2024-05-09T01:07:29.203Z,53.75
2024-05-09T01:10:24.154Z,52.53
2024-05-09T01:13:20.099Z,53.71
2024-05-09T01:16:09.133Z,53.69
2024-05-09T01:18:58.126Z,53.16
2024-05-09T01:21:49.402Z,53.04
2024-05-09T01:24:40.919Z,53.54
2024-05-09T01:27:29.484Z,53.94
2024-05-09T01:30:24.295Z,54.03
2024-05-09T01:33:16.534Z,53.63
2024-05-09T01:36:05.374Z,53.02
2024-05-09T01:38:54.088Z,53.10
2024-05-09T01:41:45.382Z,52.76
2024-05-09T01:44:34.163Z,52.34
2024-05-09T01:47:22.796Z,53.04
2024-05-09T01:50:16.311Z,52.14
2024-05-09T01:53:05.292Z,53.12
2024-05-09T01:55:53.850Z,52.98
2024-05-09T01:58:46.356Z,52.59
2024-05-09T02:01:55.580Z,52.39
2024-05-09T02:04:43.719Z,52.13
2024-05-09T02:07:32.348Z,51.73
2024-05-09T02:10:26.355Z,52.91
2024-05-09T02:13:20.614Z,53.01
2024-05-09T02:16:15.094Z,52.67
2024-05-09T02:19:03.664Z,52.98
2024-05-09T02:21:52.173Z,53.16
2024-05-09T02:24:40.765Z,53.10
2024-05-09T02:27:29.248Z,52.95
2024-05-09T02:30:25.900Z,53.19
2024-05-09T02:33:26.953Z,53.78
2024-05-09T02:36:15.812Z,53.00
2024-05-09T02:39:01.557Z,53.34
2024-05-09T02:41:49.986Z,53.28
2024-05-09T02:44:35.896Z,53.35
2024-05-09T02:47:24.771Z,53.58
2024-05-09T02:50:16.219Z,53.56
2024-05-09T02:53:08.934Z,53.75
2024-05-09T02:55:55.873Z,53.94
2024-05-09T02:58:44.419Z,54.40
2024-05-09T03:01:30.365Z,55.15
2024-05-09T03:04:26.080Z,55.17
2024-05-09T03:07:19.002Z,54.78
2024-05-09T03:10:18.252Z,54.58
2024-05-09T03:13:09.109Z,54.50
2024-05-09T03:15:57.966Z,53.67
2024-05-09T03:18:46.887Z,54.24
2024-05-09T03:21:37.898Z,54.40
2024-05-09T03:24:32.642Z,53.95
2024-05-09T03:27:21.063Z,53.41
2024-05-09T03:30:09.685Z,53.56
2024-05-09T03:32:58.240Z,54.24
2024-05-09T03:35:44.409Z,54.31
2024-05-09T03:38:32.758Z,54.10
2024-05-09T03:41:24.736Z,54.03
2024-05-09T03:44:13.317Z,54.08
2024-05-09T03:46:59.365Z,53.21
2024-05-09T03:49:47.761Z,53.59
2024-05-09T03:52:36.220Z,53.39
2024-05-09T03:55:22.160Z,53.20
2024-05-09T03:58:14.773Z,53.34
2024-05-09T04:01:00.691Z,53.62
2024-05-09T04:03:49.368Z,53.39
2024-05-09T04:06:37.698Z,53.65
2024-05-09T04:09:23.645Z,54.07
2024-05-09T04:12:12.332Z,54.94
2024-05-09T04:15:00.740Z,54.87
2024-05-09T04:17:51.839Z,54.87
2024-05-09T04:20:40.371Z,54.57
2024-05-09T04:23:30.115Z,54.62
2024-05-09T04:26:16.121Z,54.06
2024-05-09T04:29:04.735Z,55.94
2024-05-09T04:31:55.884Z,55.91
2024-05-09T04:34:41.906Z,55.99
2024-05-09T04:37:30.669Z,55.69
2024-05-09T04:40:24.344Z,55.19
2024-05-09T04:43:21.464Z,54.33
2024-05-09T04:46:07.425Z,53.87
2024-05-09T04:48:58.863Z,53.86
2024-05-09T04:51:44.683Z,53.61
2024-05-09T04:54:36.436Z,53.88
2024-05-09T04:57:22.614Z,54.36
2024-05-09T05:00:14.943Z,54.06
2024-05-09T05:03:14.204Z,52.68
2024-05-09T05:06:04.484Z,51.71
2024-05-09T05:08:52.950Z,50.76
2024-05-09T05:11:39.027Z,50.50
2024-05-09T05:14:28.097Z,49.02
2024-05-09T05:17:16.764Z,49.42
2024-05-09T05:20:03.425Z,47.72
2024-05-09T05:22:57.909Z,48.82
2024-05-09T05:25:47.944Z,46.68
2024-05-09T05:28:43.551Z,44.66
2024-05-09T05:31:38.371Z,44.13
2024-05-09T05:34:27.355Z,45.46
2024-05-09T05:37:14.086Z,43.12
2024-05-09T05:40:09.425Z,40.77
2024-05-09T05:42:58.117Z,40.89
2024-05-09T05:45:46.852Z,40.30
2024-05-09T05:48:32.999Z,40.93
2024-05-09T05:51:21.537Z,41.46
2024-05-09T05:54:07.498Z,40.42
2024-05-09T05:57:00.056Z,41.43
2024-05-09T05:59:46.107Z,42.62
2024-05-09T06:02:36.292Z,43.08
2024-05-09T06:05:23.422Z,41.30
2024-05-09T06:08:12.869Z,40.21
2024-05-09T06:10:58.716Z,42.01
2024-05-09T06:13:49.817Z,42.12
2024-05-09T06:16:35.803Z,42.73
2024-05-09T06:19:24.662Z,42.88
2024-05-09T06:22:11.315Z,42.47
2024-05-09T06:24:59.523Z,42.34
2024-05-09T06:27:45.408Z,42.36
2024-05-09T06:30:41.248Z,42.08
2024-05-09T06:33:30.035Z,44.11
2024-05-09T06:36:18.781Z,42.57
2024-05-09T06:39:04.924Z,42.07
2024-05-09T06:41:53.462Z,41.26
2024-05-09T06:44:39.313Z,41.65
2024-05-09T06:47:30.705Z,41.85
2024-05-09T06:50:23.511Z,41.93
2024-05-09T06:53:17.486Z,41.67
2024-05-09T06:56:03.896Z,41.29
2024-05-09T06:58:54.547Z,41.48
2024-05-09T07:01:40.839Z,40.43
2024-05-09T07:04:32.117Z,40.85
2024-05-09T07:07:17.862Z,40.08
2024-05-09T07:10:09.967Z,40.26
2024-05-09T07:12:57.969Z,40.02
2024-05-09T07:15:46.633Z,41.48
2024-05-09T07:18:32.371Z,42.04
2024-05-09T07:21:23.769Z,40.02
2024-05-09T07:24:15.298Z,39.29
2024-05-09T07:27:04.610Z,40.29
2024-05-09T07:29:50.296Z,38.87
2024-05-09T07:32:39.136Z,39.01
2024-05-09T07:35:25.461Z,39.46
2024-05-09T07:38:18.251Z,38.61
2024-05-09T07:41:04.752Z,37.94
2024-05-09T07:43:53.481Z,36.31
2024-05-09T07:47:47.626Z,35.77
2024-05-09T07:51:32.582Z,34.58
2024-05-09T07:55:47.825Z,37.17
2024-05-09T07:58:36.192Z,35.56
2024-05-09T08:01:22.435Z,34.39
2024-05-09T08:04:11.325Z,33.60
2024-05-09T08:06:57.238Z,37.37
2024-05-09T08:09:45.992Z,35.04
2024-05-09T08:12:34.591Z,34.19
2024-05-09T08:15:23.025Z,33.64
2024-05-09T08:18:09.819Z,33.05
2024-05-09T08:20:58.859Z,32.01
2024-05-09T08:23:47.483Z,32.58
2024-05-09T08:26:33.294Z,31.47
2024-05-09T08:29:24.490Z,32.06
2024-05-09T08:32:13.738Z,32.53
2024-05-09T08:35:02.351Z,30.95
2024-05-09T08:37:50.048Z,30.14
2024-05-09T08:40:39.273Z,30.21
2024-05-09T08:43:26.973Z,30.29
2024-05-09T08:46:19.080Z,28.52
2024-05-09T08:49:05.374Z,28.70
2024-05-09T08:51:54.110Z,28.25
2024-05-09T08:54:41.047Z,29.21
2024-05-09T08:57:30.467Z,29.66
2024-05-09T09:03:11.820Z,29.28
2024-05-09T09:06:05.642Z,29.21
2024-05-09T09:08:54.922Z,29.11
2024-05-09T09:11:40.714Z,28.11
2024-05-09T09:14:29.241Z,28.44
2024-05-09T09:17:15.742Z,27.78
2024-05-09T09:20:13.985Z,27.01
2024-05-09T09:23:02.529Z,27.51
2024-05-09T09:25:52.155Z,25.95
2024-05-09T09:28:38.488Z,24.63
2024-05-09T09:31:27.331Z,25.18
2024-05-09T09:34:13.335Z,25.10
2024-05-09T09:37:09.954Z,25.26
2024-05-09T09:39:58.058Z,23.74
2024-05-09T09:42:49.309Z,24.49
2024-05-09T09:45:36.701Z,23.01
2024-05-09T09:48:26.338Z,24.30
2024-05-09T09:51:14.039Z,24.33
2024-05-09T09:54:06.727Z,22.58
2024-05-09T09:56:55.880Z,23.59
2024-05-09T09:59:46.999Z,20.37
2024-05-09T10:02:35.389Z,22.24
2024-05-09T10:05:23.653Z,22.65
2024-05-09T10:08:14.542Z,24.50
2024-05-09T10:11:04.465Z,23.26
2024-05-09T10:13:55.114Z,22.39
2024-05-09T10:16:44.185Z,22.14
2024-05-09T10:19:34.400Z,23.00
2024-05-09T10:22:27.369Z,22.26
2024-05-09T10:25:16.157Z,22.53
2024-05-09T10:28:05.627Z,23.24
2024-05-09T10:31:04.639Z,21.75
2024-05-09T10:33:52.678Z,21.88
2024-05-09T10:36:45.588Z,20.73
2024-05-09T10:39:38.412Z,21.58
2024-05-09T10:42:24.969Z,20.04
2024-05-09T10:45:19.113Z,20.85
2024-05-09T10:48:06.183Z,21.28
2024-05-09T10:50:54.775Z,21.23
2024-05-09T10:53:42.307Z,20.73
2024-05-09T10:56:30.963Z,20.57
2024-05-09T10:59:16.857Z,21.38
2024-05-09T11:02:09.606Z,23.79
2024-05-09T11:04:56.161Z,23.85
2024-05-09T11:07:44.756Z,20.97
2024-05-09T11:10:34.072Z,20.33
2024-05-09T11:13:30.244Z,21.30
2024-05-09T11:16:21.042Z,20.42
2024-05-09T11:19:15.489Z,20.68
2024-05-09T11:22:02.306Z,19.03
2024-05-09T11:24:52.747Z,20.85
2024-05-09T11:27:41.151Z,20.68
2024-05-09T11:30:34.872Z,20.02
2024-05-09T11:33:21.144Z,21.05
2024-05-09T11:36:13.328Z,21.77
2024-05-09T11:38:59.025Z,20.71
2024-05-09T11:41:47.654Z,22.22
2024-05-09T11:44:33.960Z,22.64
2024-05-09T11:47:22.938Z,21.47
2024-05-09T11:50:13.119Z,21.68
2024-05-09T11:53:10.501Z,19.64
2024-05-09T11:55:56.244Z,21.36
2024-05-09T11:58:44.872Z,20.86
2024-05-09T12:01:30.973Z,20.53
2024-05-09T12:04:19.623Z,20.53
2024-05-09T12:07:05.399Z,19.83
2024-05-09T12:09:56.814Z,20.18
2024-05-09T12:12:42.748Z,20.87
2024-05-09T12:15:31.216Z,21.69
2024-05-09T12:18:17.192Z,21.71
2024-05-09T12:21:06.677Z,19.61
2024-05-09T12:23:55.303Z,20.78
2024-05-09T12:26:43.963Z,20.96
2024-05-09T12:29:36.199Z,20.38
2024-05-09T12:32:24.865Z,21.18
2024-05-09T12:35:14.141Z,21.68
2024-05-09T12:38:00.190Z,22.46
2024-05-09T12:40:48.749Z,20.89
2024-05-09T12:43:37.259Z,20.26
2024-05-09T12:46:25.959Z,21.49
2024-05-09T12:49:13.811Z,20.79
2024-05-09T12:52:04.100Z,20.86
2024-05-09T12:54:50.253Z,22.13
2024-05-09T12:57:38.916Z,21.42
2024-05-09T13:00:31.793Z,21.81
2024-05-09T13:03:22.811Z,21.68
2024-05-09T13:06:09.219Z,20.83
2024-05-09T13:08:58.020Z,20.97
2024-05-09T13:11:44.108Z,20.98
2024-05-09T13:14:32.445Z,20.01
2024-05-09T13:17:21.759Z,21.00
2024-05-09T13:20:18.914Z,21.24
2024-05-09T13:23:12.085Z,20.78
2024-05-09T13:26:00.904Z,21.38
2024-05-09T13:28:46.518Z,21.06
2024-05-09T13:31:34.875Z,20.82
2024-05-09T13:34:23.383Z,21.67
2024-05-09T13:37:12.675Z,21.24
2024-05-09T13:39:59.159Z,22.39
2024-05-09T13:42:48.841Z,22.06
2024-05-09T13:45:35.553Z,21.02
2024-05-09T13:48:24.028Z,22.15
2024-05-09T13:51:12.604Z,22.27
2024-05-09T13:54:02.170Z,23.03
2024-05-09T13:56:50.603Z,22.62
2024-05-09T13:59:43.238Z,22.44
2024-05-09T14:02:39.551Z,23.15
2024-05-09T14:05:29.462Z,22.48
2024-05-09T14:08:20.622Z,22.52
2024-05-09T14:11:11.643Z,23.57
2024-05-09T14:13:58.627Z,23.53
2024-05-09T14:16:48.725Z,23.79
2024-05-09T14:19:35.982Z,23.31
2024-05-09T14:22:27.182Z,22.51
2024-05-09T14:25:37.827Z,21.48
2024-05-09T14:28:30.828Z,23.14
2024-05-09T14:31:17.834Z,22.46
2024-05-09T14:34:08.524Z,24.03
2024-05-09T14:36:56.084Z,22.58
2024-05-09T14:39:47.096Z,22.80
2024-05-09T14:42:42.007Z,21.33
2024-05-09T14:45:31.845Z,22.79
2024-05-09T14:48:20.528Z,22.16
2024-05-09T14:51:10.390Z,23.08
2024-05-09T14:53:57.547Z,23.26
2024-05-09T14:56:55.584Z,21.75
2024-05-09T14:59:46.842Z,22.88
2024-05-09T15:02:38.626Z,22.30
2024-05-09T15:05:26.915Z,22.48
2024-05-09T15:08:18.633Z,22.69
2024-05-09T15:11:08.403Z,20.59
2024-05-09T15:13:58.175Z,22.34
2024-05-09T15:16:49.290Z,23.84
2024-05-09T15:19:48.329Z,22.58
2024-05-09T15:22:41.545Z,22.23
2024-05-09T15:25:34.513Z,21.74
2024-05-09T15:28:33.839Z,21.93
2024-05-09T15:31:42.025Z,22.70
2024-05-09T15:34:32.295Z,20.73
2024-05-09T15:37:30.654Z,23.23
2024-05-09T15:40:26.395Z,22.01
2024-05-09T15:43:25.759Z,21.48
2024-05-09T15:46:17.126Z,22.40
2024-05-09T15:49:04.931Z,22.41
2024-05-09T15:52:02.656Z,21.75
2024-05-09T15:54:49.672Z,22.41
2024-05-09T15:57:46.801Z,22.27
2024-05-09T16:00:38.519Z,22.45
2024-05-09T16:03:31.543Z,23.90
2024-05-09T16:06:17.324Z,23.68
2024-05-09T16:09:14.884Z,24.20
2024-05-09T16:12:08.164Z,25.23
2024-05-09T16:15:00.944Z,23.79
2024-05-09T16:17:55.521Z,24.27
2024-05-09T16:20:50.423Z,25.90
2024-05-09T16:23:44.048Z,24.97
2024-05-09T16:26:37.262Z,26.59
2024-05-09T16:29:28.468Z,25.44
2024-05-09T16:32:19.200Z,25.14
2024-05-09T16:35:07.085Z,24.87
2024-05-09T16:37:57.890Z,25.77
2024-05-09T16:40:44.568Z,25.21
2024-05-09T16:43:36.158Z,25.63
2024-05-09T16:46:22.327Z,25.79
2024-05-09T16:49:11.178Z,25.62
2024-05-09T16:52:00.275Z,26.11
2024-05-09T16:54:46.285Z,25.76
2024-05-09T16:57:34.956Z,25.97
2024-05-09T17:00:34.904Z,25.67
2024-05-09T17:03:29.280Z,26.98
2024-05-09T17:06:15.441Z,26.59
2024-05-09T17:09:08.617Z,27.85
2024-05-09T17:12:00.638Z,27.95
2024-05-09T17:14:49.327Z,28.01
2024-05-09T17:17:41.033Z,28.90
2024-05-09T17:20:34.408Z,28.92
2024-05-09T17:23:22.696Z,31.40
2024-05-09T17:26:11.192Z,29.81
2024-05-09T17:28:57.345Z,32.19
2024-05-09T17:31:45.909Z,32.28
2024-05-09T17:34:34.754Z,31.53
2024-05-09T17:37:23.677Z,31.22
2024-05-09T17:40:16.902Z,31.80
2024-05-09T17:43:06.928Z,31.96
2024-05-09T17:45:54.509Z,31.88
2024-05-09T17:48:43.056Z,33.02
2024-05-09T17:51:32.244Z,32.23
2024-05-09T17:54:20.754Z,31.38
2024-05-09T17:57:06.841Z,33.92
2024-05-09T17:59:55.913Z,32.32
2024-05-09T18:02:43.011Z,33.17
2024-05-09T18:05:31.989Z,32.08
2024-05-09T18:08:20.777Z,32.72
2024-05-09T18:11:09.766Z,34.63
2024-05-09T18:13:56.504Z,34.88
2024-05-09T18:16:45.116Z,35.12
2024-05-09T18:19:31.036Z,35.08
2024-05-09T18:22:19.981Z,33.57
2024-05-09T18:25:09.246Z,34.57
2024-05-09T18:27:58.276Z,35.42
2024-05-09T18:30:44.392Z,36.12
2024-05-09T18:33:33.204Z,35.08
2024-05-09T18:36:19.581Z,37.47
2024-05-09T18:39:08.974Z,35.25
2024-05-09T18:42:00.870Z,35.19
2024-05-09T18:44:46.692Z,32.35
2024-05-09T18:47:35.643Z,32.31
2024-05-09T18:50:31.681Z,33.08
2024-05-09T18:53:24.503Z,33.03
2024-05-09T18:56:10.653Z,33.48
2024-05-09T18:59:02.160Z,34.30
2024-05-09T19:01:48.284Z,34.23
2024-05-09T19:04:37.364Z,34.48
2024-05-09T19:07:23.847Z,34.33
2024-05-09T19:10:21.797Z,34.84
2024-05-09T19:13:12.280Z,34.89
2024-05-09T19:16:05.037Z,34.55
2024-05-09T19:18:51.614Z,34.30
2024-05-09T19:21:42.849Z,34.99
2024-05-09T19:24:29.323Z,35.83
2024-05-09T19:27:18.107Z,35.79
2024-05-09T19:30:05.714Z,35.27
2024-05-09T19:33:00.927Z,36.37
2024-05-09T19:35:46.846Z,35.22
2024-05-09T19:38:35.609Z,37.82
2024-05-09T19:41:22.151Z,35.84
2024-05-09T19:44:10.453Z,34.25
2024-05-09T19:46:56.333Z,34.90
2024-05-09T19:49:47.607Z,34.79
2024-05-09T19:52:33.644Z,37.33
2024-05-09T19:55:22.043Z,37.25
2024-05-09T19:58:09.148Z,37.92
2024-05-09T20:00:57.963Z,39.25
2024-05-09T20:03:43.961Z,40.84
2024-05-09T20:06:35.120Z,41.18
2024-05-09T20:09:21.239Z,40.60
2024-05-09T20:12:10.095Z,40.09
2024-05-09T20:14:55.970Z,39.87
2024-05-09T20:17:44.741Z,41.78
2024-05-09T20:20:37.559Z,42.38
2024-05-09T20:23:32.640Z,43.36
2024-05-09T20:26:18.477Z,43.32
2024-05-09T20:29:07.204Z,43.92
2024-05-09T20:31:53.295Z,42.56
2024-05-09T20:34:42.563Z,42.34
2024-05-09T20:37:28.660Z,43.37
2024-05-09T20:40:28.263Z,42.44
2024-05-09T20:43:18.402Z,44.22
2024-05-09T20:46:07.055Z,44.96
2024-05-09T20:48:53.452Z,45.78
2024-05-09T20:51:42.363Z,44.48
2024-05-09T20:54:28.327Z,43.21
2024-05-09T20:57:22.286Z,44.03
2024-05-09T21:00:15.031Z,44.86
2024-05-09T21:03:07.847Z,45.33
2024-05-09T21:05:54.216Z,46.68
2024-05-09T21:08:42.672Z,47.21
2024-05-09T21:11:28.808Z,48.05
2024-05-09T21:14:20.070Z,47.02
2024-05-09T21:17:05.917Z,48.90
2024-05-09T21:19:54.556Z,46.49
2024-05-09T21:22:40.570Z,47.62
2024-05-09T21:25:29.252Z,46.50
2024-05-09T21:28:15.332Z,47.27
2024-05-09T21:31:06.670Z,49.44
2024-05-09T21:33:53.275Z,50.09
2024-05-09T21:36:41.681Z,48.48
2024-05-09T21:39:27.813Z,47.67
2024-05-09T21:42:16.344Z,47.65
2024-05-09T21:45:02.518Z,47.54
2024-05-09T21:47:53.964Z,47.66
2024-05-09T21:50:42.004Z,46.27
2024-05-09T21:53:30.743Z,47.00
2024-05-09T21:56:16.725Z,45.48
2024-05-09T21:59:05.493Z,45.59
2024-05-09T22:01:51.561Z,46.16
2024-05-09T22:04:42.809Z,46.74
2024-05-09T22:07:28.883Z,46.31
2024-05-09T22:10:25.695Z,47.53
2024-05-09T22:13:19.007Z,47.97
2024-05-09T22:16:08.424Z,48.20
2024-05-09T22:18:54.774Z,48.34
2024-05-09T22:21:46.070Z,53.14
2024-05-09T22:24:32.116Z,56.00
2024-05-09T22:27:20.730Z,52.42
2024-05-09T22:30:11.767Z,52.19
2024-05-09T22:33:04.080Z,53.03
2024-05-09T22:35:51.366Z,52.28
2024-05-09T22:38:53.816Z,51.27
2024-05-09T22:41:42.955Z,51.01
2024-05-09T22:44:35.089Z,51.85
2024-05-09T22:47:24.120Z,51.52
2024-05-09T22:50:18.663Z,51.47
2024-05-09T22:53:14.218Z,51.56
2024-05-09T22:56:08.288Z,51.93
2024-05-09T22:58:58.844Z,50.24
2024-05-09T23:01:47.288Z,52.68
2024-05-09T23:04:36.076Z,52.84
2024-05-09T23:07:22.174Z,52.24
2024-05-09T23:10:17.202Z,53.18
2024-05-09T23:13:10.447Z,51.98
2024-05-09T23:15:59.074Z,51.29
2024-05-09T23:18:45.248Z,52.69
2024-05-09T23:21:33.803Z,52.15
2024-05-09T23:24:19.815Z,52.41
2024-05-09T23:27:08.575Z,51.87
2024-05-09T23:30:00.223Z,51.33
2024-05-09T23:32:46.147Z,53.27
2024-05-09T23:35:34.799Z,53.67
2024-05-09T23:38:23.766Z,52.20
2024-05-09T23:41:13.023Z,52.44
2024-05-09T23:43:59.056Z,52.16
2024-05-09T23:46:50.265Z,51.92
2024-05-09T23:49:36.192Z,52.86
2024-05-09T23:52:27.329Z,53.85
2024-05-09T23:55:13.816Z,54.05
2024-05-09T23:58:02.546Z,54.42
